sensor_id;sensor_type;location;lat;lon;timestamp;pressure;altitude;pressure_sealevel;temperature;humidity
61037;BME280;72210;47.076;15.430;2024-03-06T00:01:11;97061.47;;;6.47;100.00
61037;BME280;72210;47.076;15.430;2024-03-06T00:03:41;97053.25;;;6.39;100.00
61037;BME280;72210;47.076;15.430;2024-03-06T00:06:08;97065.72;;;6.31;100.00
61037;BME280;72210;47.076;15.430;2024-03-06T00:08:36;97067.81;;;6.23;100.00
61037;BME280;72210;47.076;15.430;2024-03-06T00:11:03;97067.97;;;6.20;100.00
61037;BME280;72210;47.076;15.430;2024-03-06T00:13:31;97073.28;;;6.17;100.00
61037;BME280;72210;47.076;15.430;2024-03-06T00:16:01;97072.50;;;6.15;100.00
61037;BME280;72210;47.076;15.430;2024-03-06T00:18:28;97076.94;;;6.13;100.00
61037;BME280;72210;47.076;15.430;2024-03-06T00:21:00;97088.72;;;6.18;100.00
61037;BME280;72210;47.076;15.430;2024-03-06T00:23:27;97081.81;;;6.19;100.00
61037;BME280;72210;47.076;15.430;2024-03-06T00:25:54;97087.00;;;6.19;100.00
61037;BME280;72210;47.076;15.430;2024-03-06T00:28:21;97085.16;;;6.21;100.00
61037;BME280;72210;47.076;15.430;2024-03-06T00:30:49;97094.38;;;6.26;100.00
61037;BME280;72210;47.076;15.430;2024-03-06T00:33:16;97084.94;;;6.25;100.00
61037;BME280;72210;47.076;15.430;2024-03-06T00:35:44;97087.31;;;6.30;100.00
61037;BME280;72210;47.076;15.430;2024-03-06T00:38:13;97097.66;;;6.30;100.00
61037;BME280;72210;47.076;15.430;2024-03-06T00:40:40;97077.94;;;6.27;100.00
61037;BME280;72210;47.076;15.430;2024-03-06T00:43:08;97087.16;;;6.33;100.00
61037;BME280;72210;47.076;15.430;2024-03-06T00:45:35;97085.41;;;6.34;100.00
61037;BME280;72210;47.076;15.430;2024-03-06T00:48:03;97089.75;;;6.33;100.00
61037;BME280;72210;47.076;15.430;2024-03-06T00:50:30;97082.81;;;6.34;100.00
61037;BME280;72210;47.076;15.430;2024-03-06T00:52:58;97092.28;;;6.35;100.00
61037;BME280;72210;47.076;15.430;2024-03-06T00:55:27;97083.63;;;6.36;100.00
61037;BME280;72210;47.076;15.430;2024-03-06T00:57:55;97072.25;;;6.38;100.00
61037;BME280;72210;47.076;15.430;2024-03-06T01:00:22;97074.91;;;6.37;100.00
61037;BME280;72210;47.076;15.430;2024-03-06T01:02:50;97082.75;;;6.35;100.00
61037;BME280;72210;47.076;15.430;2024-03-06T01:05:17;97084.38;;;6.38;100.00
61037;BME280;72210;47.076;15.430;2024-03-06T01:07:44;97084.50;;;6.35;100.00
61037;BME280;72210;47.076;15.430;2024-03-06T01:10:11;97086.19;;;6.36;100.00
61037;BME280;72210;47.076;15.430;2024-03-06T01:12:40;97094.78;;;6.36;100.00
61037;BME280;72210;47.076;15.430;2024-03-06T01:15:08;97080.97;;;6.37;100.00
61037;BME280;72210;47.076;15.430;2024-03-06T01:17:36;97082.69;;;6.37;100.00
61037;BME280;72210;47.076;15.430;2024-03-06T01:20:04;97106.88;;;6.36;100.00
61037;BME280;72210;47.076;15.430;2024-03-06T01:22:32;97082.91;;;6.32;100.00
61037;BME280;72210;47.076;15.430;2024-03-06T01:25:00;97086.28;;;6.34;100.00
61037;BME280;72210;47.076;15.430;2024-03-06T01:27:27;97078.50;;;6.34;100.00
61037;BME280;72210;47.076;15.430;2024-03-06T01:29:56;97078.59;;;6.33;100.00
61037;BME280;72210;47.076;15.430;2024-03-06T01:32:23;97090.13;;;6.25;100.00
61037;BME280;72210;47.076;15.430;2024-03-06T01:34:51;97087.81;;;6.19;100.00
61037;BME280;72210;47.076;15.430;2024-03-06T01:37:18;97082.84;;;6.15;100.00
61037;BME280;72210;47.076;15.430;2024-03-06T01:43:36;97083.28;;;6.05;100.00
61037;BME280;72210;47.076;15.430;2024-03-06T01:46:13;97085.25;;;6.00;100.00
61037;BME280;72210;47.076;15.430;2024-03-06T01:48:42;97080.22;;;5.97;100.00
61037;BME280;72210;47.076;15.430;2024-03-06T01:51:11;97087.19;;;5.95;100.00
61037;BME280;72210;47.076;15.430;2024-03-06T01:53:39;97085.44;;;5.96;100.00
61037;BME280;72210;47.076;15.430;2024-03-06T01:56:07;97086.41;;;5.93;100.00
61037;BME280;72210;47.076;15.430;2024-03-06T01:58:37;97074.53;;;5.89;100.00
61037;BME280;72210;47.076;15.430;2024-03-06T02:01:07;97074.59;;;5.87;100.00
61037;BME280;72210;47.076;15.430;2024-03-06T02:03:38;97066.13;;;5.84;100.00
61037;BME280;72210;47.076;15.430;2024-03-06T02:06:09;97070.53;;;5.82;100.00
61037;BME280;72210;47.076;15.430;2024-03-06T02:08:37;97071.38;;;5.82;100.00
61037;BME280;72210;47.076;15.430;2024-03-06T02:11:05;97068.94;;;5.79;100.00
61037;BME280;72210;47.076;15.430;2024-03-06T02:13:32;97068.16;;;5.77;100.00
61037;BME280;72210;47.076;15.430;2024-03-06T02:15:59;97064.81;;;5.75;100.00
61037;BME280;72210;47.076;15.430;2024-03-06T02:18:27;97068.22;;;5.75;100.00
61037;BME280;72210;47.076;15.430;2024-03-06T02:20:56;97065.66;;;5.75;100.00
61037;BME280;72210;47.076;15.430;2024-03-06T02:23:24;97064.03;;;5.73;100.00
61037;BME280;72210;47.076;15.430;2024-03-06T02:25:51;97064.91;;;5.73;100.00
61037;BME280;72210;47.076;15.430;2024-03-06T02:28:19;97062.38;;;5.72;100.00
61037;BME280;72210;47.076;15.430;2024-03-06T02:30:50;97056.50;;;5.68;100.00
61037;BME280;72210;47.076;15.430;2024-03-06T02:33:17;97048.81;;;5.67;100.00
61037;BME280;72210;47.076;15.430;2024-03-06T02:35:45;97054.97;;;5.64;100.00
61037;BME280;72210;47.076;15.430;2024-03-06T02:38:14;97058.38;;;5.65;100.00
61037;BME280;72210;47.076;15.430;2024-03-06T02:40:43;97060.06;;;5.66;100.00
61037;BME280;72210;47.076;15.430;2024-03-06T02:43:10;97053.97;;;5.67;100.00
61037;BME280;72210;47.076;15.430;2024-03-06T02:45:38;97042.06;;;5.64;100.00
61037;BME280;72210;47.076;15.430;2024-03-06T02:48:06;97047.22;;;5.64;100.00
61037;BME280;72210;47.076;15.430;2024-03-06T02:50:34;97049.00;;;5.62;100.00
61037;BME280;72210;47.076;15.430;2024-03-06T02:53:01;97045.81;;;5.57;100.00
61037;BME280;72210;47.076;15.430;2024-03-06T02:55:30;97043.97;;;5.59;100.00
61037;BME280;72210;47.076;15.430;2024-03-06T02:58:01;97052.72;;;5.56;100.00
61037;BME280;72210;47.076;15.430;2024-03-06T03:00:28;97044.91;;;5.58;100.00
61037;BME280;72210;47.076;15.430;2024-03-06T03:02:55;97050.00;;;5.60;100.00
61037;BME280;72210;47.076;15.430;2024-03-06T03:05:23;97043.09;;;5.60;100.00
61037;BME280;72210;47.076;15.430;2024-03-06T03:07:51;97040.38;;;5.63;100.00
61037;BME280;72210;47.076;15.430;2024-03-06T03:10:19;97060.22;;;5.63;100.00
61037;BME280;72210;47.076;15.430;2024-03-06T03:12:47;97050.84;;;5.60;100.00
61037;BME280;72210;47.076;15.430;2024-03-06T03:15:15;97056.97;;;5.57;100.00
61037;BME280;72210;47.076;15.430;2024-03-06T03:17:42;97052.94;;;5.52;100.00
61037;BME280;72210;47.076;15.430;2024-03-06T03:20:11;97056.53;;;5.48;100.00
61037;BME280;72210;47.076;15.430;2024-03-06T03:22:39;97056.69;;;5.45;100.00
61037;BME280;72210;47.076;15.430;2024-03-06T03:25:07;97058.63;;;5.39;100.00
61037;BME280;72210;47.076;15.430;2024-03-06T03:27:36;97057.72;;;5.40;100.00
61037;BME280;72210;47.076;15.430;2024-03-06T03:30:07;97056.81;;;5.42;100.00
61037;BME280;72210;47.076;15.430;2024-03-06T03:32:35;97064.38;;;5.46;100.00
61037;BME280;72210;47.076;15.430;2024-03-06T03:35:04;97055.84;;;5.44;100.00
61037;BME280;72210;47.076;15.430;2024-03-06T03:37:32;97053.97;;;5.48;100.00
61037;BME280;72210;47.076;15.430;2024-03-06T03:39:59;97059.00;;;5.51;100.00
61037;BME280;72210;47.076;15.430;2024-03-06T03:42:27;97063.19;;;5.53;100.00
61037;BME280;72210;47.076;15.430;2024-03-06T03:44:55;97063.00;;;5.58;100.00
61037;BME280;72210;47.076;15.430;2024-03-06T03:47:24;97061.16;;;5.60;100.00
61037;BME280;72210;47.076;15.430;2024-03-06T03:49:52;97060.13;;;5.64;100.00
61037;BME280;72210;47.076;15.430;2024-03-06T03:52:35;97063.97;;;5.74;100.00
61037;BME280;72210;47.076;15.430;2024-03-06T03:55:03;97057.75;;;5.79;100.00
61037;BME280;72210;47.076;15.430;2024-03-06T03:57:30;97066.28;;;5.81;100.00
61037;BME280;72210;47.076;15.430;2024-03-06T03:59:58;97067.19;;;5.80;100.00
61037;BME280;72210;47.076;15.430;2024-03-06T04:02:27;97052.81;;;5.74;100.00
61037;BME280;72210;47.076;15.430;2024-03-06T04:04:55;97066.41;;;5.78;100.00
61037;BME280;72210;47.076;15.430;2024-03-06T04:07:22;97057.75;;;5.79;100.00
61037;BME280;72210;47.076;15.430;2024-03-06T04:09:50;97054.22;;;5.81;100.00
61037;BME280;72210;47.076;15.430;2024-03-06T04:12:17;97061.09;;;5.81;100.00
61037;BME280;72210;47.076;15.430;2024-03-06T04:14:44;97056.78;;;5.81;100.00
61037;BME280;72210;47.076;15.430;2024-03-06T04:17:12;97059.31;;;5.83;100.00
61037;BME280;72210;47.076;15.430;2024-03-06T04:19:41;97059.25;;;5.84;100.00
61037;BME280;72210;47.076;15.430;2024-03-06T04:22:08;97065.16;;;5.86;100.00
61037;BME280;72210;47.076;15.430;2024-03-06T04:24:35;97064.28;;;5.87;100.00
61037;BME280;72210;47.076;15.430;2024-03-06T04:27:03;97066.00;;;5.87;100.00
61037;BME280;72210;47.076;15.430;2024-03-06T04:29:31;97061.75;;;5.86;100.00
61037;BME280;72210;47.076;15.430;2024-03-06T04:31:58;97066.72;;;5.90;100.00
61037;BME280;72210;47.076;15.430;2024-03-06T04:34:26;97068.31;;;5.93;100.00
61037;BME280;72210;47.076;15.430;2024-03-06T04:36:55;97072.50;;;5.96;100.00
61037;BME280;72210;47.076;15.430;2024-03-06T04:39:22;97069.09;;;5.95;100.00
61037;BME280;72210;47.076;15.430;2024-03-06T04:41:49;97069.09;;;5.95;100.00
61037;BME280;72210;47.076;15.430;2024-03-06T04:44:17;97070.63;;;5.99;100.00
61037;BME280;72210;47.076;15.430;2024-03-06T04:46:45;97071.25;;;6.04;100.00
61037;BME280;72210;47.076;15.430;2024-03-06T04:49:13;97073.09;;;6.02;100.00
61037;BME280;72210;47.076;15.430;2024-03-06T04:51:40;97086.75;;;6.04;100.00
61037;BME280;72210;47.076;15.430;2024-03-06T04:54:09;97085.03;;;6.05;100.00
61037;BME280;72210;47.076;15.430;2024-03-06T04:56:36;97080.69;;;6.05;100.00
61037;BME280;72210;47.076;15.430;2024-03-06T04:59:05;97079.00;;;6.04;100.00
61037;BME280;72210;47.076;15.430;2024-03-06T05:01:33;97078.72;;;6.10;100.00
61037;BME280;72210;47.076;15.430;2024-03-06T05:04:01;97090.53;;;6.16;100.00
61037;BME280;72210;47.076;15.430;2024-03-06T05:06:46;97096.53;;;6.17;100.00
61037;BME280;72210;47.076;15.430;2024-03-06T05:09:32;97091.16;;;6.21;100.00
61037;BME280;72210;47.076;15.430;2024-03-06T05:12:16;97097.03;;;6.25;100.00
61037;BME280;72210;47.076;15.430;2024-03-06T05:15:01;97097.19;;;6.22;100.00
61037;BME280;72210;47.076;15.430;2024-03-06T05:17:45;97090.41;;;6.19;100.00
61037;BME280;72210;47.076;15.430;2024-03-06T05:20:30;97090.47;;;6.18;100.00
61037;BME280;72210;47.076;15.430;2024-03-06T05:23:14;97083.25;;;6.24;100.00
61037;BME280;72210;47.076;15.430;2024-03-06T05:26:02;97091.81;;;6.26;100.00
61037;BME280;72210;47.076;15.430;2024-03-06T05:28:47;97093.81;;;6.20;100.00
61037;BME280;72210;47.076;15.430;2024-03-06T05:31:31;97106.00;;;6.18;100.00
61037;BME280;72210;47.076;15.430;2024-03-06T05:34:16;97094.75;;;6.19;100.00
61037;BME280;72210;47.076;15.430;2024-03-06T05:37:00;97101.56;;;6.20;100.00
61037;BME280;72210;47.076;15.430;2024-03-06T05:39:45;97100.00;;;6.17;100.00
61037;BME280;72210;47.076;15.430;2024-03-06T05:42:31;97096.31;;;6.21;100.00
61037;BME280;72210;47.076;15.430;2024-03-06T05:45:16;97095.44;;;6.22;100.00
61037;BME280;72210;47.076;15.430;2024-03-06T05:48:00;97097.94;;;6.24;100.00
61037;BME280;72210;47.076;15.430;2024-03-06T05:50:45;97102.00;;;6.29;100.00
61037;BME280;72210;47.076;15.430;2024-03-06T05:53:29;97102.69;;;6.33;100.00
61037;BME280;72210;47.076;15.430;2024-03-06T05:56:14;97093.09;;;6.35;100.00
61037;BME280;72210;47.076;15.430;2024-03-06T05:59:00;97092.13;;;6.38;100.00
61037;BME280;72210;47.076;15.430;2024-03-06T06:01:29;97105.00;;;6.39;100.00
61037;BME280;72210;47.076;15.430;2024-03-06T06:03:56;97091.16;;;6.40;100.00
61037;BME280;72210;47.076;15.430;2024-03-06T06:06:24;97113.38;;;6.44;100.00
61037;BME280;72210;47.076;15.430;2024-03-06T06:08:52;97107.16;;;6.49;100.00
61037;BME280;72210;47.076;15.430;2024-03-06T06:11:19;97104.34;;;6.53;100.00
61037;BME280;72210;47.076;15.430;2024-03-06T06:13:47;97099.56;;;6.63;100.00
61037;BME280;72210;47.076;15.430;2024-03-06T06:16:16;97107.88;;;6.70;100.00
61037;BME280;72210;47.076;15.430;2024-03-06T06:18:44;97113.50;;;6.78;100.00
61037;BME280;72210;47.076;15.430;2024-03-06T06:21:11;97114.72;;;6.88;100.00
61037;BME280;72210;47.076;15.430;2024-03-06T06:23:38;97101.41;;;6.96;100.00
61037;BME280;72210;47.076;15.430;2024-03-06T06:26:06;97113.97;;;7.04;100.00
61037;BME280;72210;47.076;15.430;2024-03-06T06:28:34;97123.50;;;7.03;100.00
61037;BME280;72210;47.076;15.430;2024-03-06T06:31:02;97107.59;;;7.11;100.00
61037;BME280;72210;47.076;15.430;2024-03-06T06:33:34;97114.97;;;7.18;100.00
61037;BME280;72210;47.076;15.430;2024-03-06T06:36:02;97120.75;;;7.24;100.00
61037;BME280;72210;47.076;15.430;2024-03-06T06:38:29;97122.88;;;7.33;100.00
61037;BME280;72210;47.076;15.430;2024-03-06T06:40:57;97119.22;;;7.37;100.00
61037;BME280;72210;47.076;15.430;2024-03-06T06:43:25;97121.81;;;7.37;100.00
61037;BME280;72210;47.076;15.430;2024-03-06T06:45:52;97121.59;;;7.42;100.00
61037;BME280;72210;47.076;15.430;2024-03-06T06:48:22;97118.69;;;7.48;100.00
61037;BME280;72210;47.076;15.430;2024-03-06T06:50:52;97120.09;;;7.53;100.00
61037;BME280;72210;47.076;15.430;2024-03-06T06:53:19;97125.84;;;7.60;100.00
61037;BME280;72210;47.076;15.430;2024-03-06T06:55:47;97118.41;;;7.70;100.00
61037;BME280;72210;47.076;15.430;2024-03-06T06:58:15;97115.19;;;7.82;100.00
61037;BME280;72210;47.076;15.430;2024-03-06T07:00:42;97111.28;;;7.91;100.00
61037;BME280;72210;47.076;15.430;2024-03-06T07:03:10;97118.56;;;8.00;100.00
61037;BME280;72210;47.076;15.430;2024-03-06T07:05:37;97121.91;;;8.02;100.00
61037;BME280;72210;47.076;15.430;2024-03-06T07:08:07;97123.25;;;8.09;100.00
61037;BME280;72210;47.076;15.430;2024-03-06T07:10:35;97122.94;;;8.16;100.00
61037;BME280;72210;47.076;15.430;2024-03-06T07:13:03;97120.75;;;8.24;100.00
61037;BME280;72210;47.076;15.430;2024-03-06T07:15:34;97120.41;;;8.30;100.00
61037;BME280;72210;47.076;15.430;2024-03-06T07:18:02;97122.84;;;8.33;100.00
61037;BME280;72210;47.076;15.430;2024-03-06T07:20:30;97124.41;;;8.36;100.00
61037;BME280;72210;47.076;15.430;2024-03-06T07:22:58;97129.91;;;8.47;100.00
61037;BME280;72210;47.076;15.430;2024-03-06T07:25:27;97125.28;;;8.52;100.00
61037;BME280;72210;47.076;15.430;2024-03-06T07:27:57;97124.13;;;8.58;100.00
61037;BME280;72210;47.076;15.430;2024-03-06T07:30:24;97129.88;;;8.63;100.00
61037;BME280;72210;47.076;15.430;2024-03-06T07:32:51;97133.16;;;8.67;100.00
61037;BME280;72210;47.076;15.430;2024-03-06T07:35:19;97142.78;;;8.65;100.00
61037;BME280;72210;47.076;15.430;2024-03-06T07:37:47;97142.03;;;8.62;100.00
61037;BME280;72210;47.076;15.430;2024-03-06T07:40:14;97142.03;;;8.62;100.00
61037;BME280;72210;47.076;15.430;2024-03-06T07:42:44;97132.97;;;8.70;100.00
61037;BME280;72210;47.076;15.430;2024-03-06T07:45:11;97134.50;;;8.74;100.00
61037;BME280;72210;47.076;15.430;2024-03-06T07:47:39;97129.22;;;8.75;100.00
61037;BME280;72210;47.076;15.430;2024-03-06T07:50:07;97128.28;;;8.76;100.00
61037;BME280;72210;47.076;15.430;2024-03-06T07:52:35;97136.66;;;8.82;100.00
61037;BME280;72210;47.076;15.430;2024-03-06T07:55:03;97129.69;;;8.82;100.00
61037;BME280;72210;47.076;15.430;2024-03-06T07:57:32;97137.75;;;8.77;100.00
61037;BME280;72210;47.076;15.430;2024-03-06T08:00:01;97141.53;;;8.72;100.00
61037;BME280;72210;47.076;15.430;2024-03-06T08:02:29;97139.09;;;8.53;100.00
61037;BME280;72210;47.076;15.430;2024-03-06T08:04:56;97154.94;;;8.48;100.00
61037;BME280;72210;47.076;15.430;2024-03-06T08:07:24;97151.59;;;8.46;100.00
61037;BME280;72210;47.076;15.430;2024-03-06T08:09:52;97155.94;;;8.46;100.00
61037;BME280;72210;47.076;15.430;2024-03-06T08:12:19;97150.84;;;8.44;100.00
61037;BME280;72210;47.076;15.430;2024-03-06T08:14:47;97150.84;;;8.44;100.00
61037;BME280;72210;47.076;15.430;2024-03-06T08:17:16;97151.66;;;8.44;100.00
61037;BME280;72210;47.076;15.430;2024-03-06T08:19:44;97154.66;;;8.53;100.00
61037;BME280;72210;47.076;15.430;2024-03-06T08:22:11;97154.34;;;8.59;100.00
61037;BME280;72210;47.076;15.430;2024-03-06T08:24:39;97153.00;;;8.68;100.00
61037;BME280;72210;47.076;15.430;2024-03-06T08:27:07;97151.59;;;8.78;100.00
61037;BME280;72210;47.076;15.430;2024-03-06T08:29:34;97157.16;;;8.86;100.00
61037;BME280;72210;47.076;15.430;2024-03-06T08:32:03;97162.75;;;8.94;100.00
61037;BME280;72210;47.076;15.430;2024-03-06T08:34:33;97161.59;;;9.00;100.00
61037;BME280;72210;47.076;15.430;2024-03-06T08:37:01;97160.94;;;8.96;100.00
61037;BME280;72210;47.076;15.430;2024-03-06T08:39:28;97164.09;;;9.02;100.00
61037;BME280;72210;47.076;15.430;2024-03-06T08:41:55;97158.66;;;9.06;100.00
61037;BME280;72210;47.076;15.430;2024-03-06T08:44:23;97168.59;;;9.14;100.00
61037;BME280;72210;47.076;15.430;2024-03-06T08:46:51;97166.34;;;9.08;100.00
61037;BME280;72210;47.076;15.430;2024-03-06T08:49:18;97166.63;;;9.03;100.00
61037;BME280;72210;47.076;15.430;2024-03-06T08:51:47;97172.53;;;9.05;100.00
61037;BME280;72210;47.076;15.430;2024-03-06T08:54:15;97168.47;;;9.01;100.00
61037;BME280;72210;47.076;15.430;2024-03-06T08:56:43;97178.09;;;8.99;100.00
61037;BME280;72210;47.076;15.430;2024-03-06T08:59:11;97169.28;;;9.02;100.00
61037;BME280;72210;47.076;15.430;2024-03-06T09:01:39;97172.53;;;9.05;100.00
61037;BME280;72210;47.076;15.430;2024-03-06T09:04:07;97174.97;;;9.08;100.00
61037;BME280;72210;47.076;15.430;2024-03-06T09:06:35;97175.31;;;9.02;100.00
61037;BME280;72210;47.076;15.430;2024-03-06T09:09:04;97180.25;;;9.07;100.00
61037;BME280;72210;47.076;15.430;2024-03-06T09:11:31;97178.41;;;9.09;100.00
61037;BME280;72210;47.076;15.430;2024-03-06T09:13:59;97182.75;;;9.08;100.00
61037;BME280;72210;47.076;15.430;2024-03-06T09:16:31;97179.72;;;9.16;100.00
61037;BME280;72210;47.076;15.430;2024-03-06T09:18:58;97172.50;;;9.21;100.00
61037;BME280;72210;47.076;15.430;2024-03-06T09:21:26;97178.47;;;9.23;100.00
61037;BME280;72210;47.076;15.430;2024-03-06T09:23:55;97193.03;;;9.26;100.00
61037;BME280;72210;47.076;15.430;2024-03-06T09:26:24;97184.16;;;9.30;100.00
61037;BME280;72210;47.076;15.430;2024-03-06T09:28:52;97179.59;;;9.33;100.00
61037;BME280;72210;47.076;15.430;2024-03-06T09:31:19;97179.22;;;9.25;100.00
61037;BME280;72210;47.076;15.430;2024-03-06T09:33:47;97179.47;;;9.21;100.00
61037;BME280;72210;47.076;15.430;2024-03-06T09:36:15;97177.53;;;9.24;100.00
61037;BME280;72210;47.076;15.430;2024-03-06T09:38:42;97177.44;;;9.26;100.00
61037;BME280;72210;47.076;15.430;2024-03-06T09:41:09;97178.94;;;9.30;100.00
61037;BME280;72210;47.076;15.430;2024-03-06T09:43:39;97180.19;;;9.39;100.00
61037;BME280;72210;47.076;15.430;2024-03-06T09:46:07;97181.50;;;9.46;100.00
61037;BME280;72210;47.076;15.430;2024-03-06T09:48:34;97191.25;;;9.57;100.00
61037;BME280;72210;47.076;15.430;2024-03-06T09:51:06;97175.66;;;9.57;100.00
61037;BME280;72210;47.076;15.430;2024-03-06T09:53:34;97176.44;;;9.59;100.00
61037;BME280;72210;47.076;15.430;2024-03-06T09:56:02;97174.38;;;9.64;100.00
61037;BME280;72210;47.076;15.430;2024-03-06T09:58:30;97182.28;;;9.77;100.00
61037;BME280;72210;47.076;15.430;2024-03-06T10:01:00;97175.81;;;9.84;100.00
61037;BME280;72210;47.076;15.430;2024-03-06T10:03:27;97173.47;;;9.94;100.00
61037;BME280;72210;47.076;15.430;2024-03-06T10:05:55;97171.34;;;10.00;100.00
61037;BME280;72210;47.076;15.430;2024-03-06T10:08:23;97178.78;;;10.06;100.00
61037;BME280;72210;47.076;15.430;2024-03-06T10:10:51;97179.44;;;10.10;100.00
61037;BME280;72210;47.076;15.430;2024-03-06T10:13:23;97176.72;;;10.26;100.00
61037;BME280;72210;47.076;15.430;2024-03-06T10:16:00;97184.25;;;10.31;100.00
61037;BME280;72210;47.076;15.430;2024-03-06T10:18:28;97179.97;;;10.30;100.00
61037;BME280;72210;47.076;15.430;2024-03-06T10:20:56;97172.94;;;10.32;100.00
61037;BME280;72210;47.076;15.430;2024-03-06T10:23:24;97165.03;;;10.48;100.00
61037;BME280;72210;47.076;15.430;2024-03-06T10:25:52;97171.50;;;10.55;100.00
61037;BME280;72210;47.076;15.430;2024-03-06T10:28:20;97177.47;;;10.57;100.00
61037;BME280;72210;47.076;15.430;2024-03-06T10:30:50;97168.81;;;10.56;100.00
61037;BME280;72210;47.076;15.430;2024-03-06T10:33:19;97166.41;;;10.53;100.00
61037;BME280;72210;47.076;15.430;2024-03-06T10:35:48;97176.16;;;10.50;100.00
61037;BME280;72210;47.076;15.430;2024-03-06T10:38:16;97160.63;;;10.48;100.00
61037;BME280;72210;47.076;15.430;2024-03-06T10:40:46;97176.84;;;10.53;100.00
61037;BME280;72210;47.076;15.430;2024-03-06T10:43:14;97166.41;;;10.53;100.00
61037;BME280;72210;47.076;15.430;2024-03-06T10:45:46;97178.94;;;10.61;100.00
61037;BME280;72210;47.076;15.430;2024-03-06T10:48:15;97176.69;;;10.69;100.00
61037;BME280;72210;47.076;15.430;2024-03-06T10:50:46;97174.09;;;10.69;100.00
61037;BME280;72210;47.076;15.430;2024-03-06T10:53:14;97172.94;;;10.73;100.00
61037;BME280;72210;47.076;15.430;2024-03-06T10:55:49;97161.75;;;10.86;100.00
61037;BME280;72210;47.076;15.430;2024-03-06T10:58:18;97167.31;;;10.94;100.00
61037;BME280;72210;47.076;15.430;2024-03-06T11:00:48;97162.03;;;11.08;100.00
61037;BME280;72210;47.076;15.430;2024-03-06T11:03:16;97170.88;;;11.06;100.00
61037;BME280;72210;47.076;15.430;2024-03-06T11:05:46;97164.25;;;11.14;100.00
61037;BME280;72210;47.076;15.430;2024-03-06T11:08:15;97158.97;;;11.29;100.00
61037;BME280;72210;47.076;15.430;2024-03-06T11:10:43;97163.56;;;11.38;100.00
61037;BME280;72210;47.076;15.430;2024-03-06T11:13:21;97160.66;;;11.30;100.00
61037;BME280;72210;47.076;15.430;2024-03-06T11:15:50;97168.25;;;11.33;100.00
61037;BME280;72210;47.076;15.430;2024-03-06T11:18:43;97155.75;;;11.38;100.00
61037;BME280;72210;47.076;15.430;2024-03-06T11:21:31;97155.75;;;11.38;100.00
61037;BME280;72210;47.076;15.430;2024-03-06T11:24:16;97155.66;;;11.40;100.00
61037;BME280;72210;47.076;15.430;2024-03-06T11:26:46;97140.63;;;11.43;100.00
61037;BME280;72210;47.076;15.430;2024-03-06T11:29:16;97146.28;;;11.50;100.00
61037;BME280;72210;47.076;15.430;2024-03-06T11:32:04;97146.69;;;11.57;100.00
61037;BME280;72210;47.076;15.430;2024-03-06T11:34:33;97141.47;;;11.70;100.00
61037;BME280;72210;47.076;15.430;2024-03-06T11:37:05;97129.50;;;11.80;100.00
61037;BME280;72210;47.076;15.430;2024-03-06T11:39:34;97131.38;;;11.78;100.00
61037;BME280;72210;47.076;15.430;2024-03-06T11:42:03;97125.41;;;11.76;100.00
61037;BME280;72210;47.076;15.430;2024-03-06T11:44:32;97124.38;;;11.78;100.00
61037;BME280;72210;47.076;15.430;2024-03-06T11:47:00;97128.25;;;11.85;100.00
61037;BME280;72210;47.076;15.430;2024-03-06T11:49:29;97110.19;;;11.82;100.00
61037;BME280;72210;47.076;15.430;2024-03-06T11:51:58;97118.75;;;11.84;100.00
61037;BME280;72210;47.076;15.430;2024-03-06T11:54:29;97125.31;;;11.90;100.00
61037;BME280;72210;47.076;15.430;2024-03-06T11:56:58;97117.94;;;11.97;100.00
61037;BME280;72210;47.076;15.430;2024-03-06T11:59:26;97118.81;;;12.09;100.00
61037;BME280;72210;47.076;15.430;2024-03-06T12:01:55;97112.97;;;12.31;100.00
61037;BME280;72210;47.076;15.430;2024-03-06T12:04:24;97107.19;;;12.63;100.00
61037;BME280;72210;47.076;15.430;2024-03-06T12:06:51;97110.16;;;12.82;100.00
61037;BME280;72210;47.076;15.430;2024-03-06T12:09:19;97109.16;;;12.96;99.79
61037;BME280;72210;47.076;15.430;2024-03-06T12:11:49;97101.72;;;13.14;97.25
61037;BME280;72210;47.076;15.430;2024-03-06T12:14:19;97102.25;;;13.31;93.35
61037;BME280;72210;47.076;15.430;2024-03-06T12:16:54;97094.75;;;13.26;92.39
61037;BME280;72210;47.076;15.430;2024-03-06T12:19:22;97091.13;;;13.40;93.80
61037;BME280;72210;47.076;15.430;2024-03-06T12:21:50;97094.34;;;13.55;91.05
61037;BME280;72210;47.076;15.430;2024-03-06T12:24:18;97084.72;;;13.67;89.93
61037;BME280;72210;47.076;15.430;2024-03-06T12:26:57;97088.53;;;13.85;88.61
61037;BME280;72210;47.076;15.430;2024-03-06T12:29:28;97094.72;;;14.07;83.48
61037;BME280;72210;47.076;15.430;2024-03-06T12:31:56;97094.84;;;14.16;80.78
61037;BME280;72210;47.076;15.430;2024-03-06T12:34:24;97091.25;;;14.29;79.59
61037;BME280;72210;47.076;15.430;2024-03-06T12:36:52;97090.16;;;14.43;76.68
61037;BME280;72210;47.076;15.430;2024-03-06T12:39:23;97082.38;;;14.52;74.66
61037;BME280;72210;47.076;15.430;2024-03-06T12:41:53;97086.78;;;14.63;72.86
61037;BME280;72210;47.076;15.430;2024-03-06T12:44:20;97085.09;;;14.74;71.56
61037;BME280;72210;47.076;15.430;2024-03-06T12:46:49;97080.78;;;14.84;70.46
61037;BME280;72210;47.076;15.430;2024-03-06T12:49:16;97077.28;;;15.16;68.07
61037;BME280;72210;47.076;15.430;2024-03-06T12:51:44;97077.31;;;15.37;64.53
61037;BME280;72210;47.076;15.430;2024-03-06T12:54:12;97078.38;;;15.55;61.86
61037;BME280;72210;47.076;15.430;2024-03-06T12:56:39;97067.09;;;15.65;60.32
61037;BME280;72210;47.076;15.430;2024-03-06T12:59:09;97059.53;;;15.71;58.56
61037;BME280;72210;47.076;15.430;2024-03-06T13:01:36;97059.78;;;15.68;56.91
61037;BME280;72210;47.076;15.430;2024-03-06T13:04:04;97066.63;;;15.59;55.14